Time;durP1;ratioP1;P1;durP2;ratioP2;P2;SDS_P1;SDS_P2;PMS_P1;PMS_P2;Temp;Humidity;BMP_temperature;BMP_pressure;BME280_temperature;BME280_humidity;BME280_pressure;Samples;Min_cycle;Max_cycle;Signal;HPM_P1;HPM_P2
2023/03/07 00:00:07;;;;;;;19.80;15.20;;;1.20;99.90;;;;;;4999047;28;20192;-80
2023/03/07 00:02:32;;;;;;;20.53;15.37;;;1.10;99.90;;;;;;4997179;28;20264;-79
2023/03/07 00:04:58;;;;;;;22.93;15.87;;;1.10;99.90;;;;;;5003210;28;20651;-80
2023/03/07 00:07:24;;;;;;;23.77;16.70;;;1.10;99.90;;;;;;4991553;28;20549;-81
2023/03/07 00:09:49;;;;;;;24.17;16.70;;;1.10;99.90;;;;;;4992437;28;20303;-78
2023/03/07 00:12:15;;;;;;;25.00;17.30;;;1.20;99.90;;;;;;4999067;28;20339;-79
2023/03/07 00:14:40;;;;;;;24.53;17.40;;;1.30;99.90;;;;;;4997557;28;20350;-79
2023/03/07 00:17:06;;;;;;;22.83;16.27;;;1.40;99.90;;;;;;4998744;28;20210;-78
2023/03/07 00:19:32;;;;;;;24.53;16.47;;;1.50;99.90;;;;;;4996758;28;20468;-82
2023/03/07 00:21:57;;;;;;;24.40;16.67;;;1.60;99.90;;;;;;5004160;28;20188;-78
2023/03/07 00:24:23;;;;;;;24.87;16.80;;;1.70;99.90;;;;;;5000931;28;20680;-79
2023/03/07 00:26:48;;;;;;;23.17;17.27;;;1.80;99.90;;;;;;4995315;28;20187;-81
2023/03/07 00:29:14;;;;;;;24.10;16.70;;;1.90;99.90;;;;;;5014733;28;20186;-79
2023/03/07 00:31:39;;;;;;;23.03;16.23;;;1.90;99.90;;;;;;4996307;28;20185;-80
2023/03/07 00:34:05;;;;;;;23.17;16.37;;;1.90;99.90;;;;;;4997010;28;20760;-79
2023/03/07 00:36:30;;;;;;;23.27;16.03;;;2.00;97.70;;;;;;4994008;28;20763;-80
2023/03/07 00:38:57;;;;;;;22.03;16.40;;;2.10;95.40;;;;;;4995818;28;20223;-80
2023/03/07 00:41:25;;;;;;;22.23;15.57;;;2.10;94.40;;;;;;4995679;28;20181;-79
2023/03/07 00:43:52;;;;;;;21.87;16.03;;;2.10;96.30;;;;;;4997761;28;20184;-80
2023/03/07 00:46:19;;;;;;;23.87;16.17;;;2.10;88.60;;;;;;4992685;28;20183;-78
2023/03/07 00:48:45;;;;;;;21.73;15.60;;;2.20;70.20;;;;;;4989304;28;20478;-80
2023/03/07 00:51:13;;;;;;;19.47;14.47;;;2.30;72.60;;;;;;4994309;28;20699;-80
2023/03/07 00:53:39;;;;;;;22.20;15.07;;;2.30;69.60;;;;;;4992543;28;20207;-81
2023/03/07 00:56:06;;;;;;;20.87;15.20;;;2.20;66.80;;;;;;5001786;28;20184;-80
2023/03/07 00:58:34;;;;;;;17.93;13.43;;;2.20;66.40;;;;;;4997713;28;20820;-81
2023/03/07 01:01:00;;;;;;;20.17;13.27;;;2.20;57.80;;;;;;4994260;28;20283;-79
2023/03/07 01:03:26;;;;;;;18.67;13.73;;;2.30;56.00;;;;;;5000092;28;20427;-79
2023/03/07 01:05:52;;;;;;;18.70;13.40;;;2.30;52.50;;;;;;5000786;28;20200;-78
2023/03/07 01:08:19;;;;;;;16.73;13.30;;;2.30;46.60;;;;;;4992982;28;20191;-79
2023/03/07 01:10:47;;;;;;;18.57;13.50;;;2.30;42.90;;;;;;4986665;28;20188;-79
2023/03/07 01:13:12;;;;;;;17.60;13.17;;;2.40;42.60;;;;;;4997386;28;20203;-80
2023/03/07 01:15:38;;;;;;;18.53;13.33;;;2.40;41.80;;;;;;4991284;28;20215;-80
2023/03/07 01:18:05;;;;;;;17.40;13.10;;;2.30;45.00;;;;;;4995535;28;20206;-77
2023/03/07 01:20:32;;;;;;;17.47;12.20;;;2.30;44.80;;;;;;5001717;28;20615;-80
2023/03/07 01:22:58;;;;;;;18.07;13.10;;;2.30;42.20;;;;;;4994176;28;20189;-77
2023/03/07 01:25:24;;;;;;;16.80;12.23;;;2.30;44.60;;;;;;4998376;28;20757;-77
2023/03/07 01:27:51;;;;;;;14.97;11.70;;;2.50;39.00;;;;;;4990009;28;20274;-81
2023/03/07 01:30:17;;;;;;;17.43;12.87;;;2.30;35.80;;;;;;4992262;28;20192;-79
2023/03/07 01:32:42;;;;;;;15.63;11.60;;;2.40;36.40;;;;;;4991759;28;20212;-79
2023/03/07 01:35:08;;;;;;;17.07;12.37;;;2.40;28.90;;;;;;4994682;28;20626;-78
2023/03/07 01:37:34;;;;;;;17.90;12.13;;;2.40;28.30;;;;;;4991364;28;20180;-80
2023/03/07 01:39:59;;;;;;;16.97;12.03;;;2.40;28.50;;;;;;4986146;28;20198;-77
2023/03/07 01:42:30;;;;;;;15.67;11.57;;;2.40;30.30;;;;;;4987857;28;20366;-78
2023/03/07 01:45:07;;;;;;;16.10;12.07;;;2.40;51.20;;;;;;4989811;28;20204;-78
2023/03/07 01:47:33;;;;;;;17.07;11.97;;;2.40;34.60;;;;;;4992012;28;20183;-80
2023/03/07 01:50:02;;;;;;;16.20;11.70;;;2.40;34.00;;;;;;4994424;28;20241;-80
2023/03/07 01:52:38;;;;;;;15.47;11.20;;;2.40;33.40;;;;;;4989462;28;20212;-79
2023/03/07 01:55:31;;;;;;;17.60;11.57;;;2.50;28.00;;;;;;5000180;28;20689;-80
2023/03/07 01:58:02;;;;;;;15.87;11.57;;;2.40;33.00;;;;;;4989598;28;20191;-82
2023/03/07 02:00:28;;;;;;;15.97;11.30;;;2.40;33.80;;;;;;4991668;28;20187;-79
2023/03/07 02:03:32;;;;;;;15.23;10.70;;;2.40;33.50;;;;;;4991250;28;20465;-79
2023/03/07 02:06:02;;;;;;;15.23;11.27;;;2.40;34.40;;;;;;4991603;28;20306;-80
2023/03/07 02:08:30;;;;;;;14.00;10.40;;;2.50;33.40;;;;;;4997895;28;20188;-79
2023/03/07 02:10:56;;;;;;;14.23;10.07;;;2.50;31.60;;;;;;4990804;28;20196;-79
2023/03/07 02:13:22;;;;;;;15.40;10.50;;;2.50;31.90;;;;;;5007935;28;20219;-80
2023/03/07 02:15:49;;;;;;;15.93;10.77;;;2.50;37.00;;;;;;5008155;28;20204;-79
2023/03/07 02:18:19;;;;;;;14.97;10.97;;;2.50;47.90;;;;;;4990361;28;20180;-80
2023/03/07 02:20:54;;;;;;;14.47;10.53;;;2.40;60.00;;;;;;4987882;28;20192;-80
2023/03/07 02:23:58;;;;;;;14.33;10.50;;;2.40;73.80;;;;;;4996753;28;20572;-80
2023/03/07 02:26:29;;;;;;;14.53;10.53;;;2.40;81.70;;;;;;4988892;28;20207;-80
2023/03/07 02:28:55;;;;;;;14.67;10.60;;;3.50;96.20;;;;;;4991701;28;20635;-77
2023/03/07 02:31:22;;;;;;;13.67;10.20;;;2.30;99.90;;;;;;4990507;28;20599;-79
2023/03/07 02:33:48;;;;;;;14.67;10.70;;;2.30;99.40;;;;;;4988822;28;20215;-78
2023/03/07 02:36:19;;;;;;;14.73;10.50;;;2.30;98.30;;;;;;4995160;28;20284;-79
2023/03/07 02:38:47;;;;;;;14.83;10.27;;;2.40;99.90;;;;;;4990242;28;20188;-80
2023/03/07 02:41:17;;;;;;;14.60;10.00;;;2.40;99.80;;;;;;4994462;28;20206;-79
2023/03/07 02:43:42;;;;;;;14.17;10.07;;;2.30;99.90;;;;;;4996166;28;20218;-77
2023/03/07 02:46:08;;;;;;;13.93;9.90;;;2.30;99.90;;;;;;4997410;28;20192;-80
2023/03/07 02:48:33;;;;;;;13.30;9.60;;;2.30;99.90;;;;;;4991808;28;20192;-77
2023/03/07 02:50:59;;;;;;;13.77;10.20;;;2.30;99.90;;;;;;4995502;28;20197;-81
2023/03/07 02:53:25;;;;;;;13.43;9.20;;;2.30;99.90;;;;;;4998126;28;20258;-77
2023/03/07 02:55:51;;;;;;;13.10;9.10;;;2.40;99.90;;;;;;4997780;28;20212;-76
2023/03/07 02:58:16;;;;;;;13.13;9.53;;;2.40;99.90;;;;;;4993239;28;20274;-79
2023/03/07 03:00:42;;;;;;;12.20;8.90;;;2.40;99.90;;;;;;4994393;28;20288;-78
2023/03/07 03:03:08;;;;;;;12.20;9.33;;;2.30;99.90;;;;;;4987279;28;20634;-78
2023/03/07 03:05:33;;;;;;;13.13;9.03;;;2.30;99.90;;;;;;4995062;28;20215;-80
2023/03/07 03:07:59;;;;;;;12.53;9.10;;;2.30;99.90;;;;;;4990676;28;20567;-81
2023/03/07 03:10:24;;;;;;;12.33;9.03;;;2.30;99.90;;;;;;4999009;28;20222;-78
2023/03/07 03:12:50;;;;;;;11.63;8.30;;;2.30;99.90;;;;;;4995265;28;20204;-77
2023/03/07 03:15:15;;;;;;;12.93;9.50;;;2.20;99.90;;;;;;4994920;28;20210;-79
2023/03/07 03:17:41;;;;;;;14.80;9.67;;;2.20;99.90;;;;;;4990546;28;20371;-80
2023/03/07 03:20:10;;;;;;;13.30;11.63;;;2.20;99.90;;;;;;4991783;28;20913;-80
2023/03/07 03:22:37;;;;;;;12.00;9.10;;;2.20;99.90;;;;;;4990049;28;20200;-80
2023/03/07 03:25:03;;;;;;;12.63;9.33;;;2.20;99.90;;;;;;4987954;28;20366;-80
2023/03/07 03:27:31;;;;;;;11.33;8.23;;;2.20;99.90;;;;;;4986487;28;20472;-79
2023/03/07 03:29:57;;;;;;;12.87;8.77;;;2.20;99.90;;;;;;4985543;28;20555;-80
2023/03/07 03:32:22;;;;;;;11.53;8.90;;;2.10;99.90;;;;;;4993836;28;20239;-79
2023/03/07 03:34:48;;;;;;;11.57;8.77;;;2.10;99.90;;;;;;4991904;28;20208;-80
2023/03/07 03:37:14;;;;;;;11.70;8.43;;;2.10;99.90;;;;;;4994687;28;20183;-79
2023/03/07 03:39:40;;;;;;;11.17;8.47;;;2.20;99.90;;;;;;4987162;28;20212;-79
2023/03/07 03:42:06;;;;;;;10.97;7.83;;;2.20;99.90;;;;;;4988960;28;20192;-78
2023/03/07 03:44:31;;;;;;;11.47;8.33;;;2.30;99.90;;;;;;4995758;28;20208;-79
2023/03/07 03:46:57;;;;;;;12.03;8.90;;;2.30;99.90;;;;;;5001592;28;20184;-78
2023/03/07 03:49:22;;;;;;;10.97;7.80;;;2.30;99.90;;;;;;4994443;28;20184;-78
2023/03/07 03:51:48;;;;;;;11.03;7.80;;;2.30;99.90;;;;;;4990171;28;20190;-78
2023/03/07 03:54:13;;;;;;;11.67;8.43;;;2.30;99.90;;;;;;4994862;28;20453;-81
2023/03/07 03:56:39;;;;;;;11.23;7.97;;;2.30;99.90;;;;;;4997852;28;20454;-77
2023/03/07 03:59:05;;;;;;;10.57;8.30;;;2.20;99.90;;;;;;4994943;28;20216;-79
2023/03/07 04:01:30;;;;;;;12.80;10.77;;;2.30;99.90;;;;;;4996282;28;20469;-77
2023/03/07 04:03:57;;;;;;;10.93;8.30;;;2.20;99.90;;;;;;4990760;28;20407;-77
2023/03/07 04:06:25;;;;;;;12.60;8.80;;;2.20;99.90;;;;;;4991924;28;20246;-80
2023/03/07 04:08:51;;;;;;;11.03;8.63;;;2.20;99.90;;;;;;4990665;28;20196;-78
2023/03/07 04:11:18;;;;;;;12.90;9.75;;;2.20;99.90;;;;;;4997936;28;20427;-79
2023/03/07 04:13:43;;;;;;;12.87;8.53;;;2.10;99.90;;;;;;4988233;28;20220;-78
2023/03/07 04:16:09;;;;;;;13.20;9.37;;;2.10;99.90;;;;;;4991120;28;20190;-78
2023/03/07 04:18:35;;;;;;;11.33;8.27;;;2.20;99.90;;;;;;4994630;28;20214;-79
2023/03/07 04:21:01;;;;;;;13.07;9.47;;;2.20;99.90;;;;;;4991411;28;20660;-79
2023/03/07 04:23:27;;;;;;;11.27;8.20;;;2.20;99.90;;;;;;4994844;28;20267;-78
2023/03/07 04:25:56;;;;;;;13.10;11.50;;;2.30;99.90;;;;;;5006239;28;20831;-80
2023/03/07 04:28:26;;;;;;;12.50;9.30;;;2.30;99.90;;;;;;4988666;28;20191;-79
2023/03/07 04:30:52;;;;;;;12.40;8.60;;;2.30;99.90;;;;;;4988421;28;20194;-80
2023/03/07 04:33:18;;;;;;;11.40;8.57;;;2.30;99.90;;;;;;4987386;28;20660;-79
2023/03/07 04:35:47;;;;;;;11.77;8.93;;;2.30;99.90;;;;;;4991924;28;20208;-79
2023/03/07 04:38:14;;;;;;;11.53;8.10;;;2.30;99.90;;;;;;4987860;28;20208;-79
2023/03/07 04:40:39;;;;;;;11.67;8.57;;;2.40;99.90;;;;;;4988437;28;20192;-78
2023/03/07 04:43:05;;;;;;;11.83;8.47;;;2.40;99.90;;;;;;4990901;28;20198;-79
2023/03/07 04:45:33;;;;;;;12.37;8.93;;;2.40;99.90;;;;;;4987488;28;20258;-79
2023/03/07 04:47:59;;;;;;;11.40;8.37;;;2.40;99.90;;;;;;4994674;28;20192;-78
2023/03/07 04:50:25;;;;;;;13.33;9.23;;;2.40;99.90;;;;;;4992503;28;20562;-79
2023/03/07 04:52:50;;;;;;;13.07;8.90;;;2.50;99.90;;;;;;4985871;28;20212;-78
2023/03/07 04:55:16;;;;;;;12.37;9.33;;;2.50;99.90;;;;;;4999433;28;20598;-79
2023/03/07 04:57:41;;;;;;;11.90;8.30;;;3.00;99.90;;;;;;4994626;28;20184;-78
2023/03/07 05:00:08;;;;;;;13.83;9.93;;;2.50;99.90;;;;;;4992495;28;20187;-80
2023/03/07 05:02:35;;;;;;;12.50;9.23;;;2.50;99.90;;;;;;4993672;28;20187;-80
2023/03/07 05:05:01;;;;;;;12.17;9.13;;;2.50;99.90;;;;;;4991948;28;20347;-79
2023/03/07 05:07:28;;;;;;;11.13;8.63;;;2.50;99.90;;;;;;4987117;28;20568;-80
2023/03/07 05:09:54;;;;;;;13.23;9.47;;;2.50;99.90;;;;;;4992691;28;20241;-81
2023/03/07 05:12:20;;;;;;;13.47;9.93;;;2.50;99.90;;;;;;4993678;28;20183;-79
2023/03/07 05:14:45;;;;;;;13.83;10.23;;;2.50;99.90;;;;;;4994959;28;20204;-80
2023/03/07 05:17:11;;;;;;;13.60;9.80;;;2.60;99.90;;;;;;4988808;28;20176;-79
2023/03/07 05:19:36;;;;;;;12.10;9.07;;;2.60;99.90;;;;;;4983407;28;20594;-79
2023/03/07 05:22:02;;;;;;;13.40;9.47;;;2.70;99.90;;;;;;4986416;28;20189;-79
2023/03/07 05:24:27;;;;;;;11.73;8.60;;;2.70;99.90;;;;;;4993129;28;20296;-79
2023/03/07 05:26:53;;;;;;;12.70;9.27;;;2.70;99.90;;;;;;4985742;28;20188;-81
2023/03/07 05:29:19;;;;;;;11.93;9.17;;;2.70;99.90;;;;;;4996845;28;20198;-80
2023/03/07 05:31:44;;;;;;;11.77;8.40;;;2.70;99.90;;;;;;4997723;28;20194;-79
2023/03/07 05:34:10;;;;;;;12.00;9.20;;;2.80;99.90;;;;;;5006594;28;20251;-77
2023/03/07 05:36:35;;;;;;;11.03;8.53;;;2.80;99.90;;;;;;4989498;28;20231;-79
2023/03/07 05:39:01;;;;;;;12.10;9.60;;;2.80;99.90;;;;;;4997243;28;20188;-79
2023/03/07 05:41:27;;;;;;;11.27;8.40;;;2.90;99.90;;;;;;4990287;28;20665;-81
2023/03/07 05:43:54;;;;;;;11.97;8.67;;;2.90;99.90;;;;;;4989614;28;20287;-79
2023/03/07 05:46:19;;;;;;;13.40;9.03;;;2.80;99.90;;;;;;4998803;28;20278;-79
2023/03/07 05:48:45;;;;;;;10.93;8.23;;;2.90;99.90;;;;;;4992084;28;20275;-81
2023/03/07 05:51:11;;;;;;;12.43;8.63;;;2.90;99.90;;;;;;4997944;28;20650;-77
2023/03/07 05:53:36;;;;;;;11.57;8.50;;;2.90;99.90;;;;;;4989893;28;20243;-79
2023/03/07 05:56:02;;;;;;;10.67;7.90;;;2.90;99.90;;;;;;4993602;28;20212;-77
2023/03/07 05:58:28;;;;;;;10.63;8.27;;;3.00;99.90;;;;;;4992793;28;20191;-80
2023/03/07 06:00:53;;;;;;;10.00;8.33;;;3.00;99.90;;;;;;4991978;28;20553;-80
2023/03/07 06:03:19;;;;;;;11.40;9.00;;;3.00;99.90;;;;;;4995668;28;20327;-79
2023/03/07 06:05:48;;;;;;;13.63;8.90;;;2.90;99.90;;;;;;4992347;28;20212;-80
2023/03/07 06:08:14;;;;;;;11.37;8.47;;;2.90;99.90;;;;;;4988569;28;20957;-82
2023/03/07 06:10:41;;;;;;;11.20;8.27;;;2.90;99.90;;;;;;4992388;28;20666;-80
2023/03/07 06:13:15;;;;;;;10.37;8.40;;;3.00;99.90;;;;;;4992038;28;20289;-81
2023/03/07 06:15:41;;;;;;;10.33;8.10;;;3.00;99.90;;;;;;4991040;28;20291;-81
2023/03/07 06:18:06;;;;;;;11.30;8.57;;;3.00;99.90;;;;;;4988525;28;20252;-79
2023/03/07 06:20:32;;;;;;;10.10;7.77;;;3.00;99.90;;;;;;4987934;28;20271;-78
2023/03/07 06:22:58;;;;;;;10.33;7.90;;;3.00;99.90;;;;;;4991826;28;20271;-79
2023/03/07 06:25:24;;;;;;;12.10;9.03;;;3.00;99.90;;;;;;4993504;28;20223;-80
2023/03/07 06:27:50;;;;;;;12.03;8.43;;;3.00;99.90;;;;;;4991670;28;20198;-78
2023/03/07 06:30:15;;;;;;;11.20;8.83;;;3.00;99.90;;;;;;4994208;28;20192;-79
2023/03/07 06:32:41;;;;;;;11.00;8.20;;;3.00;99.90;;;;;;4996377;28;20208;-78
2023/03/07 06:35:07;;;;;;;11.60;8.73;;;3.00;99.90;;;;;;4999082;28;20794;-79
2023/03/07 06:37:33;;;;;;;12.13;9.60;;;3.00;99.90;;;;;;4998643;28;20230;-81
2023/03/07 06:39:58;;;;;;;11.37;8.63;;;2.90;99.90;;;;;;4998587;28;20493;-77
2023/03/07 06:42:24;;;;;;;12.10;9.20;;;2.90;99.90;;;;;;4999444;28;20187;-81
2023/03/07 06:44:49;;;;;;;11.80;9.03;;;2.90;99.90;;;;;;5000137;28;20214;-79
2023/03/07 06:47:15;;;;;;;13.17;9.57;;;2.90;99.90;;;;;;4999457;28;20192;-80
2023/03/07 06:49:40;;;;;;;13.00;10.07;;;2.80;99.90;;;;;;4998929;28;20195;-81
2023/03/07 06:52:06;;;;;;;13.20;10.03;;;2.80;99.90;;;;;;4999359;28;20245;-79
2023/03/07 06:54:31;;;;;;;14.17;10.37;;;2.70;1.00;;;;;;5000333;28;20706;-80
2023/03/07 06:56:57;;;;;;;14.43;11.23;;;2.50;1.00;;;;;;5018236;28;20274;-78
2023/03/07 06:59:23;;;;;;;13.67;10.10;;;2.30;1.00;;;;;;5001633;23;20236;-77
2023/03/07 07:01:48;;;;;;;13.20;9.53;;;2.10;1.00;;;;;;4994781;28;20188;-77
2023/03/07 07:04:14;;;;;;;9.57;7.13;;;2.00;1.00;;;;;;4989543;28;20208;-78
2023/03/07 07:06:39;;;;;;;10.57;6.73;;;1.90;1.00;;;;;;4959975;28;20674;-77
2023/03/07 07:09:05;;;;;;;10.90;7.43;;;1.90;99.90;;;;;;4963424;28;20198;-78
2023/03/07 07:11:31;;;;;;;10.23;7.30;;;1.80;99.90;;;;;;4960593;28;20461;-78
2023/03/07 07:13:56;;;;;;;9.83;7.07;;;1.80;1.00;;;;;;4961441;28;20213;-78
2023/03/07 07:16:22;;;;;;;7.10;5.73;;;1.80;1.00;;;;;;4962868;28;20675;-77
2023/03/07 07:18:51;;;;;;;8.57;5.97;;;1.80;90.10;;;;;;4963513;28;20190;-78
2023/03/07 07:21:17;;;;;;;9.07;6.90;;;1.80;99.90;;;;;;4968441;28;20193;-78
2023/03/07 07:23:43;;;;;;;12.57;8.37;;;1.80;99.90;;;;;;4964757;28;20205;-78
2023/03/07 07:26:08;;;;;;;11.23;8.70;;;1.70;99.90;;;;;;4965897;28;20193;-77
2023/03/07 07:28:34;;;;;;;11.13;8.70;;;1.70;99.90;;;;;;4964424;28;20196;-77
2023/03/07 07:30:59;;;;;;;11.90;7.83;;;1.60;1.00;;;;;;4962996;28;20193;-79
2023/03/07 07:33:25;;;;;;;9.97;7.03;;;1.70;99.90;;;;;;4963107;28;20240;-78
2023/03/07 07:35:51;;;;;;;8.37;6.67;;;1.70;99.90;;;;;;4962044;28;21398;-78
2023/03/07 07:38:16;;;;;;;8.30;7.00;;;1.70;99.90;;;;;;4960124;28;20197;-78
2023/03/07 07:40:43;;;;;;;8.03;6.90;;;1.70;99.90;;;;;;4954211;28;20197;-78
2023/03/07 07:43:14;;;;;;;8.77;6.63;;;1.70;1.00;;;;;;4959579;28;20696;-77
2023/03/07 07:45:40;;;;;;;6.63;5.43;;;1.80;1.00;;;;;;4957568;28;20204;-79
2023/03/07 07:48:05;;;;;;;6.93;5.10;;;1.90;1.00;;;;;;4957530;28;20280;-78
2023/03/07 07:50:31;;;;;;;6.77;5.43;;;2.00;1.00;;;;;;4960207;28;20189;-78
2023/03/07 07:52:56;;;;;;;8.60;6.67;;;2.00;1.00;;;;;;4966324;28;20214;-77
2023/03/07 07:55:23;;;;;;;8.63;6.90;;;2.00;1.00;;;;;;4962353;28;20633;-77
2023/03/07 07:57:50;;;;;;;8.47;6.60;;;2.00;99.90;;;;;;4962265;28;20276;-78
2023/03/07 08:00:20;;;;;;;9.40;6.77;;;2.00;99.90;;;;;;4961240;28;20287;-77
2023/03/07 08:02:48;;;;;;;10.27;7.77;;;2.00;99.90;;;;;;4961348;28;20186;-77
2023/03/07 08:05:14;;;;;;;8.90;7.03;;;1.90;99.90;;;;;;4959968;28;20732;-78
2023/03/07 08:07:40;;;;;;;9.33;6.93;;;2.00;1.00;;;;;;4961247;28;20562;-78
2023/03/07 08:10:06;;;;;;;9.07;6.37;;;2.30;1.00;;;;;;4962647;28;20186;-78
2023/03/07 08:12:32;;;;;;;7.90;6.37;;;2.10;1.00;;;;;;4962565;28;20209;-78
2023/03/07 08:14:57;;;;;;;7.23;5.73;;;2.10;99.90;;;;;;4969911;28;20205;-78
2023/03/07 08:17:23;;;;;;;6.17;4.93;;;2.10;1.00;;;;;;4976861;28;20271;-78
2023/03/07 08:19:48;;;;;;;7.73;5.30;;;2.10;1.00;;;;;;4961799;28;20193;-77
2023/03/07 08:22:15;;;;;;;7.30;5.87;;;2.10;1.00;;;;;;4959588;28;20190;-77
2023/03/07 08:24:41;;;;;;;7.10;5.60;;;2.10;1.00;;;;;;4955851;28;20238;-78
2023/03/07 08:27:07;;;;;;;6.87;5.53;;;2.10;1.00;;;;;;4962658;28;20760;-78
2023/03/07 08:29:34;;;;;;;6.80;5.50;;;2.10;1.00;;;;;;4966211;28;20201;-79
2023/03/07 08:31:59;;;;;;;6.67;5.43;;;2.20;1.00;;;;;;4956243;28;20240;-78
2023/03/07 08:34:25;;;;;;;7.07;5.57;;;2.10;1.00;;;;;;4964631;28;20221;-78
2023/03/07 08:36:51;;;;;;;7.77;5.60;;;2.10;1.00;;;;;;4959790;28;20250;-77
2023/03/07 08:39:17;;;;;;;7.57;5.90;;;2.10;1.00;;;;;;4957664;28;20189;-79
2023/03/07 08:41:43;;;;;;;6.70;4.97;;;2.10;1.00;;;;;;4962938;28;20577;-78
2023/03/07 08:44:08;;;;;;;6.47;4.97;;;2.10;1.00;;;;;;4960963;28;20301;-77
2023/03/07 08:46:34;;;;;;;5.87;5.20;;;2.10;1.00;;;;;;4959991;28;20201;-78
2023/03/07 08:49:00;;;;;;;7.80;4.93;;;2.10;1.00;;;;;;4959986;28;20317;-78
2023/03/07 08:51:26;;;;;;;6.63;5.60;;;2.20;1.00;;;;;;4960555;28;20189;-79
2023/03/07 08:53:51;;;;;;;7.87;5.53;;;2.20;1.00;;;;;;4961067;28;20232;-78
2023/03/07 08:56:18;;;;;;;6.40;4.80;;;2.20;1.00;;;;;;4960027;28;20198;-79
2023/03/07 08:58:44;;;;;;;7.93;5.33;;;2.20;1.00;;;;;;4960952;28;20270;-78
2023/03/07 09:01:11;;;;;;;7.53;5.50;;;2.30;1.00;;;;;;4968322;28;20181;-78
2023/03/07 09:03:37;;;;;;;8.13;6.70;;;2.30;1.00;;;;;;4978056;28;21199;-78
2023/03/07 09:06:04;;;;;;;14.67;11.70;;;2.30;1.00;;;;;;4963246;28;20256;-77
2023/03/07 09:08:29;;;;;;;18.27;14.37;;;2.30;1.00;;;;;;4961350;28;20590;-78
2023/03/07 09:10:59;;;;;;;6.60;5.83;;;2.40;1.00;;;;;;4967360;28;20194;-78
2023/03/07 09:13:25;;;;;;;9.37;7.97;;;2.40;1.00;;;;;;4959745;28;20562;-77
2023/03/07 09:15:51;;;;;;;12.90;11.50;;;2.30;1.00;;;;;;4973415;28;20213;-79
2023/03/07 09:18:17;;;;;;;7.70;6.90;;;2.30;1.00;;;;;;4961911;28;20196;-79
2023/03/07 09:20:42;;;;;;;9.83;8.83;;;2.20;1.00;;;;;;4960975;28;20202;-78
2023/03/07 09:23:09;;;;;;;10.90;9.77;;;2.00;1.00;;;;;;4962439;28;20208;-78
2023/03/07 09:25:35;;;;;;;10.30;9.13;;;1.80;99.90;;;;;;4963226;28;20744;-77
2023/03/07 09:28:01;;;;;;;9.47;8.07;;;1.70;1.00;;;;;;4971117;28;20193;-78
2023/03/07 09:30:27;;;;;;;7.53;6.47;;;1.10;2.20;;;;;;4979664;28;20628;-79
2023/03/07 09:32:53;;;;;;;6.67;5.53;;;1.60;1.00;;;;;;4959729;28;20212;-78
2023/03/07 09:35:19;;;;;;;7.43;5.27;;;1.60;99.90;;;;;;4962361;28;20345;-78
2023/03/07 09:37:45;;;;;;;5.00;4.23;;;1.40;99.90;;;;;;4963775;28;20182;-77
2023/03/07 09:40:17;;;;;;;6.47;4.90;;;1.30;1.00;;;;;;4982313;28;20186;-78
2023/03/07 09:42:54;;;;;;;4.77;3.87;;;1.30;1.00;;;;;;4963828;28;20201;-77
2023/03/07 09:45:25;;;;;;;5.67;4.33;;;1.40;35.00;;;;;;4963005;28;20813;-79
2023/03/07 09:48:06;;;;;;;4.57;4.07;;;1.40;99.90;;;;;;4969460;28;20189;-77
2023/03/07 09:50:38;;;;;;;6.13;4.00;;;1.30;99.90;;;;;;4965373;28;20180;-78
2023/03/07 09:53:04;;;;;;;3.23;2.90;;;1.30;71.50;;;;;;4960910;28;20247;-77
2023/03/07 09:55:31;;;;;;;4.67;3.67;;;1.40;1.00;;;;;;4974916;28;20197;-79
2023/03/07 09:58:06;;;;;;;3.83;3.10;;;1.50;1.00;;;;;;4977167;28;20189;-79
2023/03/07 10:00:37;;;;;;;3.40;2.90;;;1.60;99.90;;;;;;4959441;28;20197;-79
2023/03/07 10:03:40;;;;;;;2.80;2.50;;;1.70;1.00;;;;;;4975414;28;20177;-81
2023/03/07 10:06:22;;;;;;;3.43;2.40;;;1.80;99.90;;;;;;4973999;28;20195;-80
2023/03/07 10:08:47;;;;;;;3.13;2.20;;;1.90;1.00;;;;;;4957022;28;20217;-80
2023/03/07 10:11:34;;;;;;;3.53;2.57;;;2.00;1.00;;;;;;4963679;28;20225;-79
2023/03/07 10:14:18;;;;;;;2.87;2.47;;;2.10;99.90;;;;;;4963084;28;20249;-78
2023/03/07 10:17:12;;;;;;;3.27;2.30;;;2.10;99.90;;;;;;4965157;28;20188;-77
2023/03/07 10:19:50;;;;;;;3.83;2.17;;;2.10;99.90;;;;;;4946660;28;20251;-78
2023/03/07 10:22:30;;;;;;;2.63;1.97;;;2.20;99.90;;;;;;4966151;28;20676;-78
2023/03/07 10:25:44;;;;;;;1.97;1.70;;;2.30;99.90;;;;;;4961739;28;20209;-77
2023/03/07 10:28:22;;;;;;;3.83;1.90;;;2.30;99.90;;;;;;4957725;28;20723;-77
2023/03/07 10:30:50;;;;;;;4.30;1.90;;;2.40;99.90;;;;;;4964732;28;20597;-77
2023/03/07 10:33:18;;;;;;;3.70;1.60;;;2.40;99.90;;;;;;4962246;28;20201;-78
2023/03/07 10:35:53;;;;;;;3.83;1.73;;;2.40;99.90;;;;;;4959902;28;20251;-78
2023/03/07 10:38:41;;;;;;;4.83;1.80;;;2.50;99.90;;;;;;4959529;28;20168;-78
2023/03/07 10:41:20;;;;;;;2.10;1.20;;;2.50;99.90;;;;;;4974084;28;20248;-77
2023/03/07 10:43:48;;;;;;;2.60;1.30;;;2.40;90.70;;;;;;4977562;28;20185;-78
2023/03/07 10:46:18;;;;;;;1.93;1.27;;;2.30;99.90;;;;;;4960984;28;20272;-78
2023/03/07 10:49:06;;;;;;;2.90;1.30;;;2.30;99.90;;;;;;4962411;28;20216;-78
2023/03/07 10:51:49;;;;;;;1.57;1.20;;;2.20;99.90;;;;;;4961568;28;20185;-78
2023/03/07 10:54:21;;;;;;;2.47;1.30;;;2.30;99.90;;;;;;4959649;28;20213;-80
2023/03/07 10:57:06;;;;;;;1.67;1.10;;;2.20;1.00;;;;;;4955069;28;20186;-78
2023/03/07 10:59:33;;;;;;;3.93;1.67;;;2.10;1.00;;;;;;4954759;28;20196;-79
2023/03/07 11:02:00;;;;;;;2.23;1.43;;;2.10;1.00;;;;;;4960666;28;20189;-78
2023/03/07 11:04:29;;;;;;;2.57;1.60;;;2.10;1.00;;;;;;4965463;28;20215;-79
2023/03/07 11:07:01;;;;;;;2.97;1.67;;;2.20;1.00;;;;;;4961432;28;20188;-77
2023/03/07 11:09:27;;;;;;;1.80;1.40;;;2.20;1.00;;;;;;4974517;28;20192;-79
2023/03/07 11:11:58;;;;;;;3.37;1.43;;;2.20;1.00;;;;;;4964162;28;20247;-79
2023/03/07 11:14:27;;;;;;;2.37;1.40;;;2.20;1.00;;;;;;4956699;28;20267;-78
2023/03/07 11:16:58;;;;;;;1.40;1.20;;;2.20;1.00;;;;;;4960742;28;20216;-78
2023/03/07 11:19:35;;;;;;;2.30;1.27;;;2.10;99.90;;;;;;4951055;28;20189;-78
2023/03/07 11:22:03;;;;;;;4.27;1.70;;;2.00;1.00;;;;;;4950188;28;20181;-78
2023/03/07 11:25:01;;;;;;;1.57;1.40;;;2.10;1.00;;;;;;4963742;28;20214;-78
2023/03/07 11:27:34;;;;;;;3.20;1.33;;;2.10;1.00;;;;;;4949673;28;20192;-76
2023/03/07 11:30:15;;;;;;;2.60;1.53;;;2.10;1.00;;;;;;4962056;28;20732;-77
2023/03/07 11:33:02;;;;;;;1.50;1.30;;;2.00;99.90;;;;;;4962486;28;20580;-79
2023/03/07 11:35:59;;;;;;;4.20;1.47;;;2.10;1.00;;;;;;4948821;28;20677;-79
2023/03/07 11:38:34;;;;;;;2.40;1.50;;;2.10;1.00;;;;;;4967087;28;20672;-79
2023/03/07 11:41:28;;;;;;;1.60;1.20;;;2.20;1.00;;;;;;4959265;28;20192;-78
2023/03/07 11:44:31;;;;;;;2.20;1.40;;;2.10;99.90;;;;;;4956714;28;20291;-79
2023/03/07 11:47:00;;;;;;;2.30;2.10;;;2.10;1.00;;;;;;4964222;28;20208;-77
2023/03/07 11:49:44;;;;;;;4.30;1.90;;;2.00;1.00;;;;;;4962950;28;20190;-78
2023/03/07 11:52:34;;;;;;;1.90;1.80;;;2.00;1.00;;;;;;4970073;28;20199;-78
2023/03/07 11:55:30;;;;;;;2.17;1.57;;;2.00;1.00;;;;;;4953588;28;20675;-78
2023/03/07 11:58:21;;;;;;;3.17;1.67;;;2.10;1.00;;;;;;4969562;28;20220;-77
2023/03/07 12:00:51;;;;;;;2.73;1.63;;;2.10;99.90;;;;;;4953613;28;20210;-77
2023/03/07 12:03:54;;;;;;;2.27;1.80;;;2.10;1.00;;;;;;4963526;28;20284;-77
2023/03/07 12:06:49;;;;;;;2.13;1.67;;;2.10;1.00;;;;;;4952140;28;20200;-77
2023/03/07 12:09:35;;;;;;;3.17;1.50;;;2.10;1.00;;;;;;4960145;28;20288;-76
2023/03/07 12:12:00;;;;;;;1.70;1.40;;;2.10;1.00;;;;;;4954813;28;20185;-79
2023/03/07 12:14:40;;;;;;;1.97;1.73;;;2.10;1.00;;;;;;4946792;28;20220;-78
2023/03/07 12:17:11;;;;;;;3.10;1.80;;;2.20;1.00;;;;;;4951088;28;20669;-77
2023/03/07 12:19:41;;;;;;;2.20;1.83;;;2.20;1.00;;;;;;4952657;28;20657;-77
2023/03/07 12:22:18;;;;;;;3.00;1.80;;;2.30;99.90;;;;;;4951721;28;20181;-77
2023/03/07 12:25:07;;;;;;;2.40;1.70;;;2.20;99.90;;;;;;4952738;28;20205;-78
2023/03/07 12:27:46;;;;;;;3.47;2.00;;;2.30;99.90;;;;;;4960495;28;20215;-77
2023/03/07 12:30:25;;;;;;;3.43;2.50;;;2.80;99.90;;;;;;4964415;28;20228;-77
2023/03/07 12:32:52;;;;;;;4.63;2.70;;;2.30;99.90;;;;;;4963533;28;20272;-78
2023/03/07 12:35:30;;;;;;;3.80;2.80;;;2.30;99.90;;;;;;4956513;28;20263;-77
2023/03/07 12:38:08;;;;;;;5.37;2.53;;;2.20;99.90;;;;;;4959429;28;20185;-78
2023/03/07 12:40:43;;;;;;;3.80;2.77;;;2.30;1.00;;;;;;4959916;28;20184;-76
2023/03/07 12:43:19;;;;;;;5.37;2.40;;;2.30;99.90;;;;;;4966472;28;20188;-78
2023/03/07 12:45:52;;;;;;;2.97;2.23;;;2.30;99.90;;;;;;4960614;28;21066;-78
2023/03/07 12:48:45;;;;;;;4.50;2.87;;;2.30;99.90;;;;;;4959055;28;20221;-78
2023/03/07 12:51:24;;;;;;;2.87;1.73;;;2.30;99.90;;;;;;4962160;28;20188;-77
2023/03/07 12:53:57;;;;;;;2.03;1.37;;;2.40;99.90;;;;;;4959704;28;20656;-78
2023/03/07 12:56:46;;;;;;;2.37;1.33;;;2.30;99.90;;;;;;4958091;28;20193;-78
2023/03/07 12:59:14;;;;;;;2.17;1.20;;;2.30;99.90;;;;;;4974170;28;20198;-78
2023/03/07 13:02:12;;;;;;;1.70;1.20;;;2.30;1.00;;;;;;4959219;28;20640;-78